sensor_id;sensor_type;location;lat;lon;timestamp;temperature;humidity
12761;DHT22;6444;49.742;6.114;2023-04-29T00:00:54;17.00;99.90
12761;DHT22;6444;49.742;6.114;2023-04-29T00:03:20;17.00;99.90
12761;DHT22;6444;49.742;6.114;2023-04-29T00:05:47;16.40;99.90
12761;DHT22;6444;49.742;6.114;2023-04-29T00:08:14;16.40;99.90
12761;DHT22;6444;49.742;6.114;2023-04-29T00:10:41;16.40;99.90
12761;DHT22;6444;49.742;6.114;2023-04-29T00:13:08;16.60;99.90
12761;DHT22;6444;49.742;6.114;2023-04-29T00:15:34;16.10;99.90
12761;DHT22;6444;49.742;6.114;2023-04-29T00:18:01;15.40;99.90
12761;DHT22;6444;49.742;6.114;2023-04-29T00:20:28;15.90;99.90
12761;DHT22;6444;49.742;6.114;2023-04-29T00:22:55;15.90;99.90
12761;DHT22;6444;49.742;6.114;2023-04-29T00:25:21;16.40;99.90
12761;DHT22;6444;49.742;6.114;2023-04-29T00:27:49;16.60;99.90
12761;DHT22;6444;49.742;6.114;2023-04-29T00:30:15;16.60;99.90
12761;DHT22;6444;49.742;6.114;2023-04-29T00:32:42;16.70;99.90
12761;DHT22;6444;49.742;6.114;2023-04-29T00:35:09;16.60;99.90
12761;DHT22;6444;49.742;6.114;2023-04-29T00:37:35;16.50;99.90
12761;DHT22;6444;49.742;6.114;2023-04-29T00:40:03;16.70;99.90
12761;DHT22;6444;49.742;6.114;2023-04-29T00:42:30;16.70;99.90
12761;DHT22;6444;49.742;6.114;2023-04-29T00:44:57;16.60;99.90
12761;DHT22;6444;49.742;6.114;2023-04-29T00:47:23;16.70;99.90
12761;DHT22;6444;49.742;6.114;2023-04-29T00:49:50;16.50;99.90
12761;DHT22;6444;49.742;6.114;2023-04-29T00:52:17;16.50;99.90
12761;DHT22;6444;49.742;6.114;2023-04-29T00:54:43;16.40;99.90
12761;DHT22;6444;49.742;6.114;2023-04-29T00:57:10;16.50;99.90
12761;DHT22;6444;49.742;6.114;2023-04-29T00:59:37;16.20;99.90
12761;DHT22;6444;49.742;6.114;2023-04-29T01:02:04;16.10;99.90
12761;DHT22;6444;49.742;6.114;2023-04-29T01:04:31;16.10;99.90
12761;DHT22;6444;49.742;6.114;2023-04-29T01:07:16;15.90;99.90
12761;DHT22;6444;49.742;6.114;2023-04-29T01:10:00;15.50;99.90
12761;DHT22;6444;49.742;6.114;2023-04-29T01:15:21;15.20;99.90
12761;DHT22;6444;49.742;6.114;2023-04-29T01:17:54;15.20;99.90
12761;DHT22;6444;49.742;6.114;2023-04-29T01:20:19;15.30;99.90
12761;DHT22;6444;49.742;6.114;2023-04-29T01:22:46;15.20;99.90
12761;DHT22;6444;49.742;6.114;2023-04-29T01:25:13;15.60;99.90
12761;DHT22;6444;49.742;6.114;2023-04-29T01:32:52;15.40;99.90
12761;DHT22;6444;49.742;6.114;2023-04-29T01:35:39;15.80;99.90
12761;DHT22;6444;49.742;6.114;2023-04-29T01:38:10;15.70;99.90
12761;DHT22;6444;49.742;6.114;2023-04-29T01:40:37;15.40;99.90
12761;DHT22;6444;49.742;6.114;2023-04-29T01:43:02;15.60;99.90
12761;DHT22;6444;49.742;6.114;2023-04-29T01:45:29;15.80;99.90
12761;DHT22;6444;49.742;6.114;2023-04-29T01:47:55;15.10;99.90
12761;DHT22;6444;49.742;6.114;2023-04-29T01:50:22;14.90;99.90
12761;DHT22;6444;49.742;6.114;2023-04-29T01:52:48;14.90;99.90
12761;DHT22;6444;49.742;6.114;2023-04-29T01:55:15;15.20;99.90
12761;DHT22;6444;49.742;6.114;2023-04-29T01:57:42;15.20;99.90
12761;DHT22;6444;49.742;6.114;2023-04-29T02:00:08;15.20;99.90
12761;DHT22;6444;49.742;6.114;2023-04-29T02:02:35;15.50;99.90
12761;DHT22;6444;49.742;6.114;2023-04-29T02:05:02;15.80;99.90
12761;DHT22;6444;49.742;6.114;2023-04-29T02:07:28;15.90;99.90
12761;DHT22;6444;49.742;6.114;2023-04-29T02:09:55;15.80;99.90
12761;DHT22;6444;49.742;6.114;2023-04-29T02:12:21;15.30;99.90
12761;DHT22;6444;49.742;6.114;2023-04-29T02:14:51;15.40;99.90
12761;DHT22;6444;49.742;6.114;2023-04-29T02:17:15;15.60;99.90
12761;DHT22;6444;49.742;6.114;2023-04-29T02:19:42;15.70;99.90
12761;DHT22;6444;49.742;6.114;2023-04-29T02:22:09;15.70;99.90
12761;DHT22;6444;49.742;6.114;2023-04-29T02:24:35;15.80;99.90
12761;DHT22;6444;49.742;6.114;2023-04-29T02:27:02;15.30;99.90
12761;DHT22;6444;49.742;6.114;2023-04-29T02:29:29;15.80;99.90
12761;DHT22;6444;49.742;6.114;2023-04-29T02:31:56;15.70;99.90
12761;DHT22;6444;49.742;6.114;2023-04-29T02:34:23;15.70;99.90
12761;DHT22;6444;49.742;6.114;2023-04-29T02:36:49;15.60;99.90
12761;DHT22;6444;49.742;6.114;2023-04-29T02:39:16;15.30;99.90
12761;DHT22;6444;49.742;6.114;2023-04-29T02:41:43;15.20;99.90
12761;DHT22;6444;49.742;6.114;2023-04-29T02:44:10;15.20;99.90
12761;DHT22;6444;49.742;6.114;2023-04-29T02:46:36;15.40;99.90
12761;DHT22;6444;49.742;6.114;2023-04-29T02:49:03;15.00;99.90
12761;DHT22;6444;49.742;6.114;2023-04-29T02:51:30;15.20;99.90
12761;DHT22;6444;49.742;6.114;2023-04-29T02:53:57;15.20;99.90
12761;DHT22;6444;49.742;6.114;2023-04-29T02:56:24;15.50;99.90
12761;DHT22;6444;49.742;6.114;2023-04-29T02:58:50;15.00;99.90
12761;DHT22;6444;49.742;6.114;2023-04-29T03:01:17;14.70;99.90
12761;DHT22;6444;49.742;6.114;2023-04-29T03:03:44;15.10;99.90
12761;DHT22;6444;49.742;6.114;2023-04-29T03:06:11;15.10;99.90
12761;DHT22;6444;49.742;6.114;2023-04-29T03:08:38;15.30;99.90
12761;DHT22;6444;49.742;6.114;2023-04-29T03:11:05;15.40;99.90
12761;DHT22;6444;49.742;6.114;2023-04-29T03:13:32;15.10;99.90
12761;DHT22;6444;49.742;6.114;2023-04-29T03:15:58;15.00;99.90
12761;DHT22;6444;49.742;6.114;2023-04-29T03:18:25;14.70;99.90
12761;DHT22;6444;49.742;6.114;2023-04-29T03:20:52;14.70;99.90
12761;DHT22;6444;49.742;6.114;2023-04-29T03:23:18;14.70;99.90
12761;DHT22;6444;49.742;6.114;2023-04-29T03:25:46;14.90;99.90
12761;DHT22;6444;49.742;6.114;2023-04-29T03:28:12;14.90;99.90
12761;DHT22;6444;49.742;6.114;2023-04-29T03:30:39;15.20;99.90
12761;DHT22;6444;49.742;6.114;2023-04-29T03:33:05;15.50;99.90
12761;DHT22;6444;49.742;6.114;2023-04-29T03:35:32;15.40;99.90
12761;DHT22;6444;49.742;6.114;2023-04-29T03:37:59;15.90;99.90
12761;DHT22;6444;49.742;6.114;2023-04-29T03:40:26;15.90;99.90
12761;DHT22;6444;49.742;6.114;2023-04-29T03:42:53;15.90;99.90
12761;DHT22;6444;49.742;6.114;2023-04-29T03:45:19;15.90;99.90
12761;DHT22;6444;49.742;6.114;2023-04-29T03:47:47;16.10;99.90
12761;DHT22;6444;49.742;6.114;2023-04-29T03:50:13;16.00;99.90
12761;DHT22;6444;49.742;6.114;2023-04-29T03:52:40;16.10;99.90
12761;DHT22;6444;49.742;6.114;2023-04-29T03:55:07;16.00;99.90
12761;DHT22;6444;49.742;6.114;2023-04-29T03:57:33;16.20;99.90
12761;DHT22;6444;49.742;6.114;2023-04-29T04:00:01;15.90;99.90
12761;DHT22;6444;49.742;6.114;2023-04-29T04:02:28;15.90;99.90
12761;DHT22;6444;49.742;6.114;2023-04-29T04:04:54;15.70;99.90
12761;DHT22;6444;49.742;6.114;2023-04-29T04:07:21;15.40;99.90
12761;DHT22;6444;49.742;6.114;2023-04-29T04:09:48;14.70;99.90
12761;DHT22;6444;49.742;6.114;2023-04-29T04:12:15;14.60;99.90
12761;DHT22;6444;49.742;6.114;2023-04-29T04:14:41;14.80;99.90
12761;DHT22;6444;49.742;6.114;2023-04-29T04:17:08;15.30;99.90
12761;DHT22;6444;49.742;6.114;2023-04-29T04:19:35;15.10;99.90
12761;DHT22;6444;49.742;6.114;2023-04-29T04:22:02;14.70;99.90
12761;DHT22;6444;49.742;6.114;2023-04-29T04:24:28;14.90;99.90
12761;DHT22;6444;49.742;6.114;2023-04-29T04:26:55;15.30;99.90
12761;DHT22;6444;49.742;6.114;2023-04-29T04:29:21;15.10;99.90
12761;DHT22;6444;49.742;6.114;2023-04-29T04:31:48;14.80;99.90
12761;DHT22;6444;49.742;6.114;2023-04-29T04:34:15;14.30;99.90
12761;DHT22;6444;49.742;6.114;2023-04-29T04:36:41;14.80;99.90
12761;DHT22;6444;49.742;6.114;2023-04-29T04:39:08;15.20;99.90
12761;DHT22;6444;49.742;6.114;2023-04-29T04:41:34;15.40;99.90
12761;DHT22;6444;49.742;6.114;2023-04-29T04:44:02;14.50;99.90
12761;DHT22;6444;49.742;6.114;2023-04-29T04:46:28;14.40;99.90
12761;DHT22;6444;49.742;6.114;2023-04-29T04:48:55;14.30;99.90
12761;DHT22;6444;49.742;6.114;2023-04-29T04:51:22;14.70;99.90
12761;DHT22;6444;49.742;6.114;2023-04-29T04:53:48;14.90;99.90
12761;DHT22;6444;49.742;6.114;2023-04-29T04:56:15;15.30;99.90
12761;DHT22;6444;49.742;6.114;2023-04-29T04:58:42;15.70;99.90
12761;DHT22;6444;49.742;6.114;2023-04-29T05:01:09;15.60;99.90
12761;DHT22;6444;49.742;6.114;2023-04-29T05:03:36;15.50;99.90
12761;DHT22;6444;49.742;6.114;2023-04-29T05:06:02;15.30;99.90
12761;DHT22;6444;49.742;6.114;2023-04-29T05:08:29;15.10;99.90
12761;DHT22;6444;49.742;6.114;2023-04-29T05:10:55;15.40;99.90
12761;DHT22;6444;49.742;6.114;2023-04-29T05:13:23;15.80;99.90
12761;DHT22;6444;49.742;6.114;2023-04-29T05:15:50;15.70;99.90
12761;DHT22;6444;49.742;6.114;2023-04-29T05:18:16;15.30;99.90
12761;DHT22;6444;49.742;6.114;2023-04-29T05:20:43;15.10;99.90
12761;DHT22;6444;49.742;6.114;2023-04-29T05:23:09;15.50;99.90
12761;DHT22;6444;49.742;6.114;2023-04-29T05:25:36;15.70;99.90
12761;DHT22;6444;49.742;6.114;2023-04-29T05:28:03;16.00;99.90
12761;DHT22;6444;49.742;6.114;2023-04-29T05:30:29;15.60;99.90
12761;DHT22;6444;49.742;6.114;2023-04-29T05:32:56;15.40;99.90
12761;DHT22;6444;49.742;6.114;2023-04-29T05:35:23;15.00;99.90
12761;DHT22;6444;49.742;6.114;2023-04-29T05:37:49;15.20;99.90
12761;DHT22;6444;49.742;6.114;2023-04-29T05:40:16;15.00;99.90
12761;DHT22;6444;49.742;6.114;2023-04-29T05:42:42;15.20;99.90
12761;DHT22;6444;49.742;6.114;2023-04-29T05:45:09;15.50;99.90
12761;DHT22;6444;49.742;6.114;2023-04-29T05:47:36;15.10;99.90
12761;DHT22;6444;49.742;6.114;2023-04-29T05:50:02;15.20;99.90
12761;DHT22;6444;49.742;6.114;2023-04-29T05:52:29;15.20;99.90
12761;DHT22;6444;49.742;6.114;2023-04-29T05:54:56;15.10;99.90
12761;DHT22;6444;49.742;6.114;2023-04-29T05:57:23;14.90;99.90
12761;DHT22;6444;49.742;6.114;2023-04-29T05:59:50;14.90;99.90
12761;DHT22;6444;49.742;6.114;2023-04-29T06:02:16;15.20;99.90
12761;DHT22;6444;49.742;6.114;2023-04-29T06:04:43;15.50;99.90
12761;DHT22;6444;49.742;6.114;2023-04-29T06:07:09;14.90;99.90
12761;DHT22;6444;49.742;6.114;2023-04-29T06:09:36;14.90;99.90
12761;DHT22;6444;49.742;6.114;2023-04-29T06:12:04;14.80;99.90
12761;DHT22;6444;49.742;6.114;2023-04-29T06:14:30;14.80;99.90
12761;DHT22;6444;49.742;6.114;2023-04-29T06:16:57;14.20;99.90
12761;DHT22;6444;49.742;6.114;2023-04-29T06:19:23;14.40;99.90
12761;DHT22;6444;49.742;6.114;2023-04-29T06:21:50;14.70;99.90
12761;DHT22;6444;49.742;6.114;2023-04-29T06:24:17;15.10;99.90
12761;DHT22;6444;49.742;6.114;2023-04-29T06:26:44;14.40;99.90
12761;DHT22;6444;49.742;6.114;2023-04-29T06:29:11;14.30;99.90
12761;DHT22;6444;49.742;6.114;2023-04-29T06:31:37;14.50;99.90
12761;DHT22;6444;49.742;6.114;2023-04-29T06:34:04;14.30;99.90
12761;DHT22;6444;49.742;6.114;2023-04-29T06:36:31;14.20;99.90
12761;DHT22;6444;49.742;6.114;2023-04-29T06:38:57;14.50;99.90
12761;DHT22;6444;49.742;6.114;2023-04-29T06:41:25;15.00;99.90
12761;DHT22;6444;49.742;6.114;2023-04-29T06:43:51;15.00;99.90
12761;DHT22;6444;49.742;6.114;2023-04-29T06:46:18;15.50;99.90
12761;DHT22;6444;49.742;6.114;2023-04-29T06:48:45;15.50;99.90
12761;DHT22;6444;49.742;6.114;2023-04-29T06:51:11;15.00;99.90
12761;DHT22;6444;49.742;6.114;2023-04-29T06:53:38;15.40;99.90
12761;DHT22;6444;49.742;6.114;2023-04-29T06:56:04;15.30;99.90
12761;DHT22;6444;49.742;6.114;2023-04-29T06:58:32;15.00;99.90
12761;DHT22;6444;49.742;6.114;2023-04-29T07:00:58;14.90;99.90
12761;DHT22;6444;49.742;6.114;2023-04-29T07:03:25;14.70;99.90
12761;DHT22;6444;49.742;6.114;2023-04-29T07:05:52;14.70;99.90
12761;DHT22;6444;49.742;6.114;2023-04-29T07:08:18;14.60;99.90
12761;DHT22;6444;49.742;6.114;2023-04-29T07:10:52;14.60;99.90
12761;DHT22;6444;49.742;6.114;2023-04-29T07:13:12;14.50;99.90
12761;DHT22;6444;49.742;6.114;2023-04-29T07:15:39;15.30;99.90
12761;DHT22;6444;49.742;6.114;2023-04-29T07:18:06;15.40;99.90
12761;DHT22;6444;49.742;6.114;2023-04-29T07:20:35;15.10;99.90
12761;DHT22;6444;49.742;6.114;2023-04-29T07:23:00;15.40;99.90
12761;DHT22;6444;49.742;6.114;2023-04-29T07:25:26;15.30;99.90
12761;DHT22;6444;49.742;6.114;2023-04-29T07:27:53;15.70;99.90
12761;DHT22;6444;49.742;6.114;2023-04-29T07:30:19;15.20;99.90
12761;DHT22;6444;49.742;6.114;2023-04-29T07:32:47;14.30;99.90
12761;DHT22;6444;49.742;6.114;2023-04-29T07:35:14;14.20;99.90
12761;DHT22;6444;49.742;6.114;2023-04-29T07:37:40;14.80;99.90
12761;DHT22;6444;49.742;6.114;2023-04-29T07:40:07;14.60;99.90
12761;DHT22;6444;49.742;6.114;2023-04-29T07:42:33;14.10;99.90
12761;DHT22;6444;49.742;6.114;2023-04-29T07:45:00;14.10;99.90
12761;DHT22;6444;49.742;6.114;2023-04-29T07:47:27;14.50;99.90
12761;DHT22;6444;49.742;6.114;2023-04-29T07:49:53;14.50;99.90
12761;DHT22;6444;49.742;6.114;2023-04-29T07:52:20;15.00;99.90
12761;DHT22;6444;49.742;6.114;2023-04-29T07:54:47;15.10;99.90
12761;DHT22;6444;49.742;6.114;2023-04-29T07:57:13;15.10;99.90
12761;DHT22;6444;49.742;6.114;2023-04-29T07:59:40;15.80;99.90
12761;DHT22;6444;49.742;6.114;2023-04-29T08:02:06;16.30;99.90
12761;DHT22;6444;49.742;6.114;2023-04-29T08:04:33;16.50;99.90
12761;DHT22;6444;49.742;6.114;2023-04-29T08:07:01;16.70;99.90
12761;DHT22;6444;49.742;6.114;2023-04-29T08:09:26;16.80;99.90
12761;DHT22;6444;49.742;6.114;2023-04-29T08:11:53;16.40;99.90
12761;DHT22;6444;49.742;6.114;2023-04-29T08:14:21;16.30;99.90
12761;DHT22;6444;49.742;6.114;2023-04-29T08:16:47;16.70;99.90
12761;DHT22;6444;49.742;6.114;2023-04-29T08:19:14;16.90;99.90
12761;DHT22;6444;49.742;6.114;2023-04-29T08:21:40;16.90;99.90
12761;DHT22;6444;49.742;6.114;2023-04-29T08:24:07;16.80;99.90
12761;DHT22;6444;49.742;6.114;2023-04-29T08:26:34;17.00;99.90
12761;DHT22;6444;49.742;6.114;2023-04-29T08:29:00;16.90;99.90
12761;DHT22;6444;49.742;6.114;2023-04-29T08:31:27;16.00;99.90
12761;DHT22;6444;49.742;6.114;2023-04-29T08:33:54;15.50;99.90
12761;DHT22;6444;49.742;6.114;2023-04-29T08:36:21;16.20;99.90
12761;DHT22;6444;49.742;6.114;2023-04-29T08:38:48;16.20;99.90
12761;DHT22;6444;49.742;6.114;2023-04-29T08:41:14;16.10;99.90
12761;DHT22;6444;49.742;6.114;2023-04-29T08:43:41;15.90;99.90
12761;DHT22;6444;49.742;6.114;2023-04-29T08:46:07;16.30;99.90
12761;DHT22;6444;49.742;6.114;2023-04-29T08:48:35;15.60;99.90
12761;DHT22;6444;49.742;6.114;2023-04-29T08:51:01;15.60;99.90
12761;DHT22;6444;49.742;6.114;2023-04-29T08:53:28;15.80;99.90
12761;DHT22;6444;49.742;6.114;2023-04-29T08:55:55;15.60;99.90
12761;DHT22;6444;49.742;6.114;2023-04-29T08:58:22;15.80;99.90
12761;DHT22;6444;49.742;6.114;2023-04-29T09:00:49;15.70;99.90
12761;DHT22;6444;49.742;6.114;2023-04-29T09:03:24;16.00;99.90
12761;DHT22;6444;49.742;6.114;2023-04-29T09:05:48;16.40;99.90
12761;DHT22;6444;49.742;6.114;2023-04-29T09:08:15;16.10;99.90
12761;DHT22;6444;49.742;6.114;2023-04-29T09:10:41;16.20;99.90
12761;DHT22;6444;49.742;6.114;2023-04-29T09:13:08;15.80;99.90
12761;DHT22;6444;49.742;6.114;2023-04-29T09:15:35;14.70;99.90
12761;DHT22;6444;49.742;6.114;2023-04-29T09:18:01;14.70;99.90
12761;DHT22;6444;49.742;6.114;2023-04-29T09:20:28;15.00;99.90
12761;DHT22;6444;49.742;6.114;2023-04-29T09:22:56;13.90;99.90
12761;DHT22;6444;49.742;6.114;2023-04-29T09:25:22;13.80;99.90
12761;DHT22;6444;49.742;6.114;2023-04-29T09:27:48;14.50;99.90
12761;DHT22;6444;49.742;6.114;2023-04-29T09:30:15;14.90;99.90
12761;DHT22;6444;49.742;6.114;2023-04-29T09:32:45;15.10;99.90
12761;DHT22;6444;49.742;6.114;2023-04-29T09:38:12;15.00;99.90
12761;DHT22;6444;49.742;6.114;2023-04-29T09:40:38;15.30;99.90
12761;DHT22;6444;49.742;6.114;2023-04-29T09:43:10;15.00;99.90
12761;DHT22;6444;49.742;6.114;2023-04-29T09:45:34;15.70;99.90
12761;DHT22;6444;49.742;6.114;2023-04-29T09:48:01;16.40;99.90
12761;DHT22;6444;49.742;6.114;2023-04-29T09:50:28;17.20;99.90
12761;DHT22;6444;49.742;6.114;2023-04-29T09:52:55;17.20;99.90
12761;DHT22;6444;49.742;6.114;2023-04-29T09:55:33;17.10;99.90
12761;DHT22;6444;49.742;6.114;2023-04-29T09:57:54;17.30;99.90
12761;DHT22;6444;49.742;6.114;2023-04-29T10:00:20;17.20;99.90
12761;DHT22;6444;49.742;6.114;2023-04-29T10:02:47;16.70;99.90
12761;DHT22;6444;49.742;6.114;2023-04-29T10:05:14;16.50;99.90
12761;DHT22;6444;49.742;6.114;2023-04-29T10:07:40;16.80;99.90
12761;DHT22;6444;49.742;6.114;2023-04-29T10:10:07;16.60;99.90
12761;DHT22;6444;49.742;6.114;2023-04-29T10:12:36;16.00;99.90
12761;DHT22;6444;49.742;6.114;2023-04-29T10:17:58;15.30;99.90
12761;DHT22;6444;49.742;6.114;2023-04-29T10:20:23;15.80;99.90
12761;DHT22;6444;49.742;6.114;2023-04-29T10:22:54;16.50;99.90
12761;DHT22;6444;49.742;6.114;2023-04-29T10:25:20;16.60;99.90
12761;DHT22;6444;49.742;6.114;2023-04-29T10:27:46;17.30;99.90
12761;DHT22;6444;49.742;6.114;2023-04-29T10:30:13;17.70;99.90
12761;DHT22;6444;49.742;6.114;2023-04-29T10:32:40;17.90;99.90
12761;DHT22;6444;49.742;6.114;2023-04-29T10:35:09;18.30;99.90
12761;DHT22;6444;49.742;6.114;2023-04-29T10:37:39;18.70;99.90
12761;DHT22;6444;49.742;6.114;2023-04-29T10:40:13;17.80;99.90
12761;DHT22;6444;49.742;6.114;2023-04-29T10:45:17;16.60;99.90
12761;DHT22;6444;49.742;6.114;2023-04-29T10:50:34;17.40;99.90
12761;DHT22;6444;49.742;6.114;2023-04-29T10:53:03;18.20;99.90
12761;DHT22;6444;49.742;6.114;2023-04-29T10:55:29;18.60;99.90
12761;DHT22;6444;49.742;6.114;2023-04-29T10:57:56;18.70;99.90
12761;DHT22;6444;49.742;6.114;2023-04-29T11:00:26;18.70;99.90
12761;DHT22;6444;49.742;6.114;2023-04-29T11:02:56;17.90;99.90
12761;DHT22;6444;49.742;6.114;2023-04-29T11:05:32;16.10;99.90
12761;DHT22;6444;49.742;6.114;2023-04-29T11:08:14;15.40;99.90
12761;DHT22;6444;49.742;6.114;2023-04-29T11:10:40;15.50;99.90
12761;DHT22;6444;49.742;6.114;2023-04-29T11:13:25;15.90;99.90
12761;DHT22;6444;49.742;6.114;2023-04-29T11:16:09;16.70;99.90
12761;DHT22;6444;49.742;6.114;2023-04-29T11:19:05;16.90;99.90
12761;DHT22;6444;49.742;6.114;2023-04-29T11:21:30;16.60;99.90
12761;DHT22;6444;49.742;6.114;2023-04-29T11:23:57;16.00;99.90
12761;DHT22;6444;49.742;6.114;2023-04-29T11:26:23;16.10;99.90
12761;DHT22;6444;49.742;6.114;2023-04-29T11:28:50;15.70;99.90
12761;DHT22;6444;49.742;6.114;2023-04-29T11:31:17;16.50;99.90
12761;DHT22;6444;49.742;6.114;2023-04-29T11:33:43;16.80;99.90
12761;DHT22;6444;49.742;6.114;2023-04-29T11:36:13;17.40;99.90
12761;DHT22;6444;49.742;6.114;2023-04-29T11:38:39;18.10;99.90
12761;DHT22;6444;49.742;6.114;2023-04-29T11:41:06;18.50;99.90
12761;DHT22;6444;49.742;6.114;2023-04-29T11:43:32;18.50;99.90
12761;DHT22;6444;49.742;6.114;2023-04-29T11:45:59;18.70;99.90
12761;DHT22;6444;49.742;6.114;2023-04-29T11:48:26;17.90;99.90
12761;DHT22;6444;49.742;6.114;2023-04-29T11:50:56;17.90;99.90
12761;DHT22;6444;49.742;6.114;2023-04-29T11:53:20;16.30;99.90
12761;DHT22;6444;49.742;6.114;2023-04-29T11:55:46;15.60;99.90
12761;DHT22;6444;49.742;6.114;2023-04-29T11:58:16;16.30;99.90
12761;DHT22;6444;49.742;6.114;2023-04-29T12:00:42;16.70;99.90
12761;DHT22;6444;49.742;6.114;2023-04-29T12:03:13;15.40;99.90
12761;DHT22;6444;49.742;6.114;2023-04-29T12:05:44;15.30;99.90
12761;DHT22;6444;49.742;6.114;2023-04-29T12:08:07;16.80;99.90
12761;DHT22;6444;49.742;6.114;2023-04-29T12:10:36;16.70;99.90
12761;DHT22;6444;49.742;6.114;2023-04-29T12:13:03;17.10;99.90
12761;DHT22;6444;49.742;6.114;2023-04-29T12:15:29;17.40;99.90
12761;DHT22;6444;49.742;6.114;2023-04-29T12:17:56;17.60;99.90
12761;DHT22;6444;49.742;6.114;2023-04-29T12:20:22;17.60;99.90
12761;DHT22;6444;49.742;6.114;2023-04-29T12:22:49;17.50;99.90
12761;DHT22;6444;49.742;6.114;2023-04-29T12:25:16;17.00;99.90
12761;DHT22;6444;49.742;6.114;2023-04-29T12:27:42;16.60;99.90
12761;DHT22;6444;49.742;6.114;2023-04-29T12:30:09;16.80;99.90
12761;DHT22;6444;49.742;6.114;2023-04-29T12:32:36;16.60;99.90
12761;DHT22;6444;49.742;6.114;2023-04-29T12:35:02;16.00;99.90
12761;DHT22;6444;49.742;6.114;2023-04-29T12:37:29;16.10;99.90
12761;DHT22;6444;49.742;6.114;2023-04-29T12:39:55;16.20;99.90
12761;DHT22;6444;49.742;6.114;2023-04-29T12:42:22;17.00;99.90
12761;DHT22;6444;49.742;6.114;2023-04-29T12:44:49;17.50;99.90
12761;DHT22;6444;49.742;6.114;2023-04-29T12:47:16;17.50;99.90
12761;DHT22;6444;49.742;6.114;2023-04-29T12:49:43;17.70;99.90
12761;DHT22;6444;49.742;6.114;2023-04-29T12:52:09;18.30;99.90
12761;DHT22;6444;49.742;6.114;2023-04-29T12:54:36;17.80;99.90
12761;DHT22;6444;49.742;6.114;2023-04-29T12:57:03;18.50;99.90
12761;DHT22;6444;49.742;6.114;2023-04-29T12:59:30;18.50;99.90
12761;DHT22;6444;49.742;6.114;2023-04-29T13:01:57;18.80;99.90
12761;DHT22;6444;49.742;6.114;2023-04-29T13:04:24;16.00;99.90
12761;DHT22;6444;49.742;6.114;2023-04-29T13:06:53;15.90;99.90
12761;DHT22;6444;49.742;6.114;2023-04-29T13:09:20;16.10;99.90
12761;DHT22;6444;49.742;6.114;2023-04-29T13:11:53;16.90;99.90
12761;DHT22;6444;49.742;6.114;2023-04-29T13:14:20;16.70;99.90
12761;DHT22;6444;49.742;6.114;2023-04-29T13:16:46;17.30;99.90
12761;DHT22;6444;49.742;6.114;2023-04-29T13:19:13;17.80;99.90
12761;DHT22;6444;49.742;6.114;2023-04-29T13:21:39;18.30;99.90
12761;DHT22;6444;49.742;6.114;2023-04-29T13:24:09;18.40;99.90
12761;DHT22;6444;49.742;6.114;2023-04-29T13:26:47;17.70;99.90
12761;DHT22;6444;49.742;6.114;2023-04-29T13:29:16;16.30;99.90
12761;DHT22;6444;49.742;6.114;2023-04-29T13:31:50;16.70;99.90
12761;DHT22;6444;49.742;6.114;2023-04-29T13:34:13;17.10;99.90
12761;DHT22;6444;49.742;6.114;2023-04-29T13:36:40;17.20;99.90
12761;DHT22;6444;49.742;6.114;2023-04-29T13:39:06;16.70;99.90
12761;DHT22;6444;49.742;6.114;2023-04-29T13:41:33;16.90;99.90
12761;DHT22;6444;49.742;6.114;2023-04-29T13:44:00;17.40;99.90
12761;DHT22;6444;49.742;6.114;2023-04-29T13:46:26;17.30;99.90
12761;DHT22;6444;49.742;6.114;2023-04-29T13:48:56;17.40;99.90
12761;DHT22;6444;49.742;6.114;2023-04-29T13:51:25;17.50;99.90
12761;DHT22;6444;49.742;6.114;2023-04-29T13:53:55;17.80;99.90
12761;DHT22;6444;49.742;6.114;2023-04-29T13:56:21;18.20;99.90
12761;DHT22;6444;49.742;6.114;2023-04-29T13:58:48;17.70;99.90
12761;DHT22;6444;49.742;6.114;2023-04-29T14:01:15;17.60;99.90
12761;DHT22;6444;49.742;6.114;2023-04-29T14:03:46;18.20;99.90
12761;DHT22;6444;49.742;6.114;2023-04-29T14:06:13;18.30;99.90
12761;DHT22;6444;49.742;6.114;2023-04-29T14:08:39;18.40;99.90
12761;DHT22;6444;49.742;6.114;2023-04-29T14:11:06;18.30;99.90
12761;DHT22;6444;49.742;6.114;2023-04-29T14:13:41;18.50;99.90
12761;DHT22;6444;49.742;6.114;2023-04-29T14:16:06;17.10;99.90
12761;DHT22;6444;49.742;6.114;2023-04-29T14:18:33;17.00;99.90
12761;DHT22;6444;49.742;6.114;2023-04-29T14:21:00;17.40;99.90
12761;DHT22;6444;49.742;6.114;2023-04-29T14:23:27;17.40;99.90
12761;DHT22;6444;49.742;6.114;2023-04-29T14:25:56;17.50;99.90
12761;DHT22;6444;49.742;6.114;2023-04-29T14:28:20;17.00;99.90
12761;DHT22;6444;49.742;6.114;2023-04-29T14:30:47;17.00;99.90
12761;DHT22;6444;49.742;6.114;2023-04-29T14:33:13;17.20;99.90
12761;DHT22;6444;49.742;6.114;2023-04-29T14:35:41;17.40;99.90
12761;DHT22;6444;49.742;6.114;2023-04-29T14:38:08;16.50;99.90
12761;DHT22;6444;49.742;6.114;2023-04-29T14:40:38;15.40;99.90
12761;DHT22;6444;49.742;6.114;2023-04-29T14:43:04;16.20;99.90
12761;DHT22;6444;49.742;6.114;2023-04-29T14:45:31;16.70;99.90
12761;DHT22;6444;49.742;6.114;2023-04-29T14:47:58;17.30;99.90
12761;DHT22;6444;49.742;6.114;2023-04-29T14:50:24;17.00;99.90
12761;DHT22;6444;49.742;6.114;2023-04-29T14:53:03;16.10;99.90
12761;DHT22;6444;49.742;6.114;2023-04-29T14:55:30;16.80;99.90
12761;DHT22;6444;49.742;6.114;2023-04-29T14:57:56;17.10;99.90
12761;DHT22;6444;49.742;6.114;2023-04-29T15:00:23;16.10;99.90
12761;DHT22;6444;49.742;6.114;2023-04-29T15:02:50;15.70;99.90
12761;DHT22;6444;49.742;6.114;2023-04-29T15:05:16;16.30;99.90
12761;DHT22;6444;49.742;6.114;2023-04-29T15:07:43;16.30;99.90
12761;DHT22;6444;49.742;6.114;2023-04-29T15:10:10;16.10;99.90
12761;DHT22;6444;49.742;6.114;2023-04-29T15:12:37;17.10;99.90
12761;DHT22;6444;49.742;6.114;2023-04-29T15:15:15;17.00;99.90
12761;DHT22;6444;49.742;6.114;2023-04-29T15:17:39;17.00;99.90
12761;DHT22;6444;49.742;6.114;2023-04-29T15:20:06;17.00;99.90
12761;DHT22;6444;49.742;6.114;2023-04-29T15:22:33;17.50;99.90
12761;DHT22;6444;49.742;6.114;2023-04-29T15:24:59;17.50;99.90
12761;DHT22;6444;49.742;6.114;2023-04-29T15:27:26;16.30;99.90
12761;DHT22;6444;49.742;6.114;2023-04-29T15:29:56;15.00;99.90
12761;DHT22;6444;49.742;6.114;2023-04-29T15:32:22;15.00;99.90
12761;DHT22;6444;49.742;6.114;2023-04-29T15:34:49;15.50;99.90
12761;DHT22;6444;49.742;6.114;2023-04-29T15:37:15;15.50;99.90
12761;DHT22;6444;49.742;6.114;2023-04-29T15:39:42;16.30;99.90
12761;DHT22;6444;49.742;6.114;2023-04-29T15:42:09;16.90;99.90
12761;DHT22;6444;49.742;6.114;2023-04-29T15:44:35;17.40;99.90
12761;DHT22;6444;49.742;6.114;2023-04-29T15:47:03;16.30;99.90
12761;DHT22;6444;49.742;6.114;2023-04-29T15:49:29;16.20;99.90
12761;DHT22;6444;49.742;6.114;2023-04-29T15:51:56;15.40;99.90
12761;DHT22;6444;49.742;6.114;2023-04-29T15:54:23;15.70;99.90
12761;DHT22;6444;49.742;6.114;2023-04-29T15:56:50;15.50;99.90
12761;DHT22;6444;49.742;6.114;2023-04-29T15:59:17;15.50;99.90
12761;DHT22;6444;49.742;6.114;2023-04-29T16:01:43;15.70;99.90
12761;DHT22;6444;49.742;6.114;2023-04-29T16:04:10;15.70;99.90